Afton, Wisconsin
Current Conditions -  °F | °C
As of 5:45 AM on Sunday 23 Nov 2014 (Local Time) from KJVL Reporting Station
Haze Haze  
Wind Chill: 11°   Ceiling: 600
Heat Index: 11°   Visibility: 2mi
Dew Point:   Wind: 12mph
Humidity: 88%   Direction: 180°S
Pressure: 29.68"   Gusts: NA
Location:  42.6°N, 89.07°W
Report Text: KJVL 231145Z 18010KT 2SM BR OVC006 11/09 A2968 RMK FIRST
Loading
Personal Weather Stations






























Interactive Weather Map New forecast layout! Learn more

10-Day Weather Forecast

Advertisements
Track Severe Weather on mobile